createdAt,value
2019-04-26T00:02:56.488Z,95325.27
2019-04-26T00:05:44.067Z,95307.32
2019-04-26T00:08:31.939Z,95316.95
2019-04-26T00:11:34.913Z,95313.32
2019-04-26T00:14:40.330Z,95325.20
2019-04-26T00:17:34.924Z,95310.27
2019-04-26T00:20:22.607Z,95286.56
2019-04-26T00:23:10.755Z,95293.16
2019-04-26T00:25:58.988Z,95279.05
2019-04-26T00:28:46.514Z,95283.05
2019-04-26T00:31:34.207Z,95294.86
2019-04-26T00:34:21.983Z,95303.90
2019-04-26T00:37:09.804Z,95303.27
2019-04-26T00:40:02.700Z,95321.84
2019-04-26T00:42:50.101Z,95315.41
2019-04-26T00:45:38.905Z,95318.98
2019-04-26T00:48:26.449Z,95333.37
2019-04-26T00:51:15.228Z,95333.73
2019-04-26T00:54:03.081Z,95346.02
2019-04-26T00:56:50.941Z,95348.78
2019-04-26T00:59:38.589Z,95343.13
2019-04-26T01:02:48.748Z,95347.38
2019-04-26T01:05:37.870Z,95342.42
2019-04-26T01:08:25.747Z,95334.73
2019-04-26T01:11:13.335Z,95329.15
2019-04-26T01:14:01.117Z,95324.62
2019-04-26T01:16:48.754Z,95324.66
2019-04-26T01:19:38.227Z,95307.30
2019-04-26T01:22:29.509Z,95314.67
2019-04-26T01:25:53.666Z,95302.56
2019-04-26T01:28:46.584Z,95311.39
2019-04-26T01:31:38.530Z,95308.44
2019-04-26T01:34:26.226Z,95318.50
2019-04-26T01:37:13.868Z,95316.95
2019-04-26T01:40:06.509Z,95325.44
2019-04-26T01:43:20.206Z,95323.44
2019-04-26T01:46:15.912Z,95327.04
2019-04-26T01:49:06.753Z,95331.66
2019-04-26T01:52:00.338Z,95339.88
2019-04-26T01:54:48.045Z,95338.44
2019-04-26T01:57:35.792Z,95340.94
2019-04-26T02:00:41.537Z,95335.66
2019-04-26T02:03:29.946Z,95338.47
2019-04-26T02:06:25.217Z,95347.18
2019-04-26T02:09:08.748Z,95344.84
2019-04-26T02:11:56.225Z,95346.61
2019-04-26T02:14:44.254Z,95345.16
2019-04-26T02:17:31.607Z,95355.99
2019-04-26T02:20:59.202Z,95352.40
2019-04-26T02:24:12.063Z,95357.77
2019-04-26T02:27:00.679Z,95362.98
2019-04-26T02:29:48.561Z,95363.80
2019-04-26T02:32:37.046Z,95359.81
2019-04-26T02:35:26.549Z,95348.17
2019-04-26T02:38:13.643Z,95351.00
2019-04-26T02:41:01.153Z,95358.75
2019-04-26T02:43:50.429Z,95369.91
2019-04-26T02:46:46.040Z,95376.74
2019-04-26T02:49:39.498Z,95363.17
2019-04-26T02:52:52.883Z,95363.77
2019-04-26T02:56:11.447Z,95362.39
2019-04-26T02:59:23.145Z,95374.40
2019-04-26T03:02:21.935Z,95367.28
2019-04-26T03:05:10.004Z,95373.48
2019-04-26T03:08:07.298Z,95370.47
2019-04-26T03:11:17.984Z,95370.83
2019-04-26T03:14:23.836Z,95373.43
2019-04-26T03:17:24.637Z,95368.02
2019-04-26T03:20:14.879Z,95368.47
2019-04-26T03:23:45.811Z,95372.96
2019-04-26T03:26:35.646Z,95382.14
2019-04-26T03:29:34.818Z,95376.06
2019-04-26T03:33:06.405Z,95387.38
2019-04-26T03:36:18.699Z,95394.79
2019-04-26T03:39:18.460Z,95407.27
2019-04-26T03:42:44.024Z,95410.56
2019-04-26T03:46:02.135Z,95415.09
2019-04-26T03:49:35.608Z,95432.09
2019-04-26T03:53:10.195Z,95437.22
2019-04-26T03:56:56.031Z,95438.70
2019-04-26T04:00:39.321Z,95445.24
2019-04-26T04:03:55.125Z,95443.16
2019-04-26T04:07:02.232Z,95461.05
2019-04-26T04:09:32.996Z,95469.89
2019-04-26T04:12:47.673Z,95481.62
2019-04-26T04:15:42.599Z,95482.30
2019-04-26T04:18:32.065Z,95477.91
2019-04-26T04:21:38.617Z,95481.86
2019-04-26T04:24:31.062Z,95485.91
2019-04-26T04:27:34.701Z,95497.30
2019-04-26T04:30:40.611Z,95500.82
2019-04-26T04:33:50.103Z,95497.49
2019-04-26T04:36:50.592Z,95521.08
2019-04-26T04:40:09.764Z,95513.22
2019-04-26T04:43:27.090Z,95527.05
2019-04-26T04:46:35.551Z,95535.93
2019-04-26T04:49:38.951Z,95541.02
2019-04-26T04:52:53.551Z,95546.02
2019-04-26T04:56:03.657Z,95551.99
2019-04-26T04:58:53.877Z,95555.25
2019-04-26T05:02:21.102Z,95563.41
2019-04-26T05:05:30.039Z,95561.80
2019-04-26T05:08:58.649Z,95562.91
2019-04-26T05:12:09.598Z,95563.04
2019-04-26T05:15:05.233Z,95559.98
2019-04-26T05:18:05.327Z,95570.05
2019-04-26T05:21:27.893Z,95575.26
2019-04-26T05:24:36.952Z,95574.08
2019-04-26T05:27:48.181Z,95571.39
2019-04-26T05:31:12.826Z,95562.36
2019-04-26T05:34:21.606Z,95569.70
2019-04-26T05:37:47.837Z,95567.67
2019-04-26T05:41:01.234Z,95566.57
2019-04-26T05:44:19.851Z,95577.84
2019-04-26T05:47:37.625Z,95582.84
2019-04-26T05:51:11.956Z,95582.70
2019-04-26T05:54:42.505Z,95579.19
2019-04-26T05:57:52.727Z,95595.79
2019-04-26T06:01:14.009Z,95601.73
2019-04-26T06:04:31.222Z,95598.22
2019-04-26T06:07:38.741Z,95600.92
2019-04-26T06:10:36.704Z,95605.85
2019-04-26T06:14:12.393Z,95612.77
2019-04-26T06:17:49.103Z,95612.14
2019-04-26T06:20:47.337Z,95617.38
2019-04-26T06:23:55.885Z,95620.80
2019-04-26T06:27:22.225Z,95614.86
2019-04-26T06:30:24.871Z,95619.77
2019-04-26T06:33:49.340Z,95619.20
2019-04-26T06:36:54.504Z,95622.12
2019-04-26T06:39:54.966Z,95617.53
2019-04-26T06:43:12.883Z,95620.08
2019-04-26T06:46:51.775Z,95621.53
2019-04-26T06:50:19.527Z,95620.82
2019-04-26T06:53:34.662Z,95624.16
2019-04-26T06:57:09.626Z,95628.39
2019-04-26T07:00:27.704Z,95625.91
2019-04-26T07:03:51.532Z,95613.47
2019-04-26T07:07:07.493Z,95622.74
2019-04-26T07:10:09.080Z,95620.41
2019-04-26T07:13:28.093Z,95628.16
2019-04-26T07:16:32.176Z,95643.58
2019-04-26T07:19:55.096Z,95649.97
2019-04-26T07:23:32.291Z,95662.88
2019-04-26T07:26:53.919Z,95677.52
2019-04-26T07:30:07.303Z,95681.83
2019-04-26T07:33:38.515Z,95694.13
2019-04-26T07:37:15.331Z,95691.11
2019-04-26T07:40:48.631Z,95705.11
2019-04-26T07:44:09.749Z,95712.55
2019-04-26T07:47:06.403Z,95705.83
2019-04-26T07:50:44.248Z,95707.08
2019-04-26T07:54:07.412Z,95704.95
2019-04-26T07:57:26.799Z,95709.81
2019-04-26T08:00:19.571Z,95708.31
2019-04-26T08:03:18.082Z,95719.22
2019-04-26T08:06:15.520Z,95726.25
2019-04-26T08:09:26.035Z,95725.87
2019-04-26T08:12:06.230Z,95719.87
2019-04-26T08:15:14.367Z,95720.91
2019-04-26T08:18:11.710Z,95726.02
2019-04-26T08:21:09.955Z,95719.95
2019-04-26T08:24:06.358Z,95727.64
2019-04-26T08:27:23.085Z,95725.92
2019-04-26T08:30:15.749Z,95734.58
2019-04-26T08:33:07.535Z,95738.75
2019-04-26T08:35:55.339Z,95740.03
2019-04-26T08:38:44.023Z,95756.23
2019-04-26T08:41:35.190Z,95754.97
2019-04-26T08:44:44.524Z,95750.38
2019-04-26T08:47:53.508Z,95751.88
2019-04-26T08:50:45.868Z,95753.73
2019-04-26T08:53:35.150Z,95759.72
2019-04-26T08:56:27.267Z,95763.52
2019-04-26T08:59:22.177Z,95757.02
2019-04-26T09:02:25.817Z,95765.56
2019-04-26T09:05:35.718Z,95775.41
2019-04-26T09:08:28.578Z,95767.62
2019-04-26T09:11:25.846Z,95755.54
2019-04-26T09:14:08.795Z,95748.70
2019-04-26T09:16:56.427Z,95767.77
2019-04-26T09:19:43.848Z,95772.84
2019-04-26T09:22:49.597Z,95784.69
2019-04-26T09:25:43.637Z,95783.66
2019-04-26T09:28:52.980Z,95798.70
2019-04-26T09:31:45.335Z,95795.54
2019-04-26T09:34:32.993Z,95790.83
2019-04-26T09:37:20.392Z,95811.56
2019-04-26T09:40:10.640Z,95807.77
2019-04-26T09:43:15.171Z,95805.52
2019-04-26T09:46:20.114Z,95818.00
2019-04-26T09:49:20.029Z,95826.19
2019-04-26T09:52:12.266Z,95825.13
2019-04-26T09:54:59.876Z,95832.50
2019-04-26T09:57:47.389Z,95837.42
2019-04-26T10:00:35.170Z,95839.26
2019-04-26T10:03:23.145Z,95837.33
2019-04-26T10:06:10.823Z,95842.09
2019-04-26T10:08:58.491Z,95843.59
2019-04-26T10:11:51.144Z,95830.34
2019-04-26T10:15:05.739Z,95831.11
2019-04-26T10:17:53.476Z,95826.66
2019-04-26T10:20:40.883Z,95830.17
2019-04-26T10:23:28.362Z,95830.70
2019-04-26T10:26:16.287Z,95831.69
2019-04-26T10:29:03.867Z,95836.23
2019-04-26T10:31:51.709Z,95844.16
2019-04-26T10:34:42.663Z,95856.52
2019-04-26T10:37:39.297Z,95840.20
2019-04-26T10:40:19.372Z,95837.86
2019-04-26T10:43:08.042Z,95834.27
2019-04-26T10:45:55.622Z,95832.87
2019-04-26T10:48:45.436Z,95831.64
2019-04-26T10:51:41.885Z,95836.02
2019-04-26T10:54:32.165Z,95824.34
2019-04-26T10:57:27.573Z,95836.30
2019-04-26T11:00:23.548Z,95832.78
2019-04-26T11:03:11.076Z,95840.72
2019-04-26T11:05:58.652Z,95832.02
2019-04-26T11:08:46.305Z,95833.86
2019-04-26T11:11:40.153Z,95842.20
2019-04-26T11:14:27.643Z,95848.95
2019-04-26T11:17:16.464Z,95832.42
2019-04-26T11:20:06.239Z,95845.64
2019-04-26T11:22:54.361Z,95846.50
2019-04-26T11:25:42.108Z,95843.47
2019-04-26T11:28:29.749Z,95851.86
2019-04-26T11:31:17.555Z,95853.30
2019-04-26T11:34:05.818Z,95863.23
2019-04-26T11:36:54.574Z,95866.02
2019-04-26T11:39:42.214Z,95872.00
2019-04-26T11:42:29.421Z,95879.70
2019-04-26T11:45:17.461Z,95891.24
2019-04-26T11:48:05.685Z,95896.41
2019-04-26T11:50:53.725Z,95890.59
2019-04-26T11:53:44.763Z,95894.41
2019-04-26T11:56:33.993Z,95909.42
2019-04-26T11:59:20.164Z,95918.80
2019-04-26T12:02:08.354Z,95913.89
2019-04-26T12:05:13.098Z,95922.48
2019-04-26T12:08:04.838Z,95921.63
2019-04-26T12:10:52.679Z,95919.12
2019-04-26T12:13:40.001Z,95915.92
2019-04-26T12:16:27.356Z,95917.36
2019-04-26T12:19:18.251Z,95918.09
2019-04-26T12:22:08.137Z,95920.80
2019-04-26T12:24:53.543Z,95912.98
2019-04-26T12:27:41.204Z,95917.77
2019-04-26T12:30:28.899Z,95902.62
2019-04-26T12:33:17.810Z,95900.45
2019-04-26T12:36:09.519Z,95904.19
2019-04-26T12:38:58.243Z,95904.34
2019-04-26T12:41:45.075Z,95896.81
2019-04-26T12:44:41.219Z,95896.52
2019-04-26T12:47:38.703Z,95895.67
2019-04-26T12:50:24.921Z,95898.59
2019-04-26T12:53:12.674Z,95901.09
2019-04-26T12:56:00.341Z,95899.38
2019-04-26T12:58:49.994Z,95906.55
2019-04-26T13:01:37.353Z,95895.91
2019-04-26T13:04:35.545Z,95896.70
2019-04-26T13:07:24.065Z,95894.63
2019-04-26T13:10:27.175Z,95899.84
2019-04-26T13:13:39.743Z,95893.13
2019-04-26T13:16:45.109Z,95890.11
2019-04-26T13:19:32.757Z,95871.02
2019-04-26T13:22:21.315Z,95864.02
2019-04-26T13:25:15.484Z,95870.62
2019-04-26T13:27:57.798Z,95862.18
2019-04-26T13:30:45.512Z,95864.25
2019-04-26T13:33:33.319Z,95860.98
2019-04-26T13:36:20.724Z,95861.34
2019-04-26T13:39:13.517Z,95849.38
2019-04-26T13:42:05.992Z,95851.56
2019-04-26T13:44:54.975Z,95852.63
2019-04-26T13:48:10.457Z,95859.66
2019-04-26T13:51:05.674Z,95849.38
2019-04-26T13:53:54.343Z,95854.41
2019-04-26T13:56:42.220Z,95851.89
2019-04-26T13:59:31.654Z,95854.58
2019-04-26T14:02:19.180Z,95866.62
2019-04-26T14:05:07.022Z,95866.62
2019-04-26T14:07:54.902Z,95869.37
2019-04-26T14:10:45.580Z,95865.08
2019-04-26T14:13:31.277Z,95860.35
2019-04-26T14:16:21.228Z,95866.48
2019-04-26T14:19:14.742Z,95866.17
2019-04-26T14:21:57.543Z,95869.67
2019-04-26T14:24:57.020Z,95869.84
2019-04-26T14:27:50.057Z,95874.00
2019-04-26T14:30:41.446Z,95873.27
2019-04-26T14:33:30.401Z,95881.65
2019-04-26T14:36:17.905Z,95881.77
2019-04-26T14:39:10.745Z,95883.05
2019-04-26T14:41:57.177Z,95886.83
2019-04-26T14:44:49.700Z,95879.95
2019-04-26T14:47:46.791Z,95888.41
2019-04-26T14:50:23.970Z,95888.14
2019-04-26T14:53:11.650Z,95886.22
2019-04-26T14:55:59.402Z,95885.91
2019-04-26T14:58:47.019Z,95876.55
2019-04-26T15:01:49.968Z,95871.13
2019-04-26T15:04:53.279Z,95865.98
2019-04-26T15:07:49.463Z,95868.76
2019-04-26T15:10:44.289Z,95866.65
2019-04-26T15:13:25.490Z,95867.39
2019-04-26T15:16:14.294Z,95871.97
2019-04-26T15:19:02.050Z,95872.45
2019-04-26T15:21:49.851Z,95879.72
2019-04-26T15:24:38.624Z,95876.14
2019-04-26T15:27:26.233Z,95875.41
2019-04-26T15:30:14.068Z,95881.06
2019-04-26T15:33:03.161Z,95878.52
2019-04-26T15:35:52.144Z,95881.84
2019-04-26T15:38:44.821Z,95881.19
2019-04-26T15:41:47.008Z,95870.86
2019-04-26T15:45:01.906Z,95862.08
2019-04-26T15:48:07.282Z,95858.14
2019-04-26T15:50:54.797Z,95851.53
2019-04-26T15:53:43.498Z,95852.11
2019-04-26T15:56:32.429Z,95851.64
2019-04-26T15:59:25.351Z,95847.96
2019-04-26T16:02:12.878Z,95843.27
2019-04-26T16:05:02.219Z,95849.55
2019-04-26T16:07:49.952Z,95849.23
2019-04-26T16:10:38.510Z,95852.75
2019-04-26T16:13:26.192Z,95855.98
2019-04-26T16:16:16.464Z,95857.51
2019-04-26T16:19:03.382Z,95860.94
2019-04-26T16:21:52.789Z,95866.34
2019-04-26T16:24:39.843Z,95858.92
2019-04-26T16:27:32.346Z,95868.89
2019-04-26T16:30:28.432Z,95866.20
2019-04-26T16:33:19.093Z,95870.75
2019-04-26T16:36:06.463Z,95871.33
2019-04-26T16:38:56.636Z,95868.06
2019-04-26T16:41:43.346Z,95873.55
2019-04-26T16:44:31.815Z,95876.27
2019-04-26T16:47:20.066Z,95875.32
2019-04-26T16:50:08.349Z,95869.74
2019-04-26T16:52:55.804Z,95871.59
2019-04-26T16:55:52.164Z,95870.63
2019-04-26T16:58:38.285Z,95879.42
2019-04-26T17:01:23.465Z,95879.71
2019-04-26T17:04:12.327Z,95890.53
2019-04-26T17:07:04.290Z,95878.91
2019-04-26T17:09:57.320Z,95883.56
2019-04-26T17:12:39.085Z,95885.42
2019-04-26T17:15:26.578Z,95885.39
2019-04-26T17:18:14.048Z,95875.06
2019-04-26T17:21:02.586Z,95877.06
2019-04-26T17:24:00.792Z,95869.78
2019-04-26T17:26:49.858Z,95869.30
2019-04-26T17:29:37.295Z,95869.64
2019-04-26T17:32:24.744Z,95875.69
2019-04-26T17:35:12.282Z,95882.86
2019-04-26T17:38:02.067Z,95879.96
2019-04-26T17:40:50.497Z,95884.52
2019-04-26T17:43:42.310Z,95885.26
2019-04-26T17:46:27.268Z,95888.16
2019-04-26T17:49:15.007Z,95889.91
2019-04-26T17:52:02.846Z,95888.42
2019-04-26T17:54:52.067Z,95891.04
2019-04-26T17:57:42.359Z,95890.58
2019-04-26T18:00:44.644Z,95889.54
2019-04-26T18:03:18.348Z,95891.91
2019-04-26T18:06:09.494Z,95893.83
2019-04-26T18:08:55.246Z,95892.89
2019-04-26T18:11:43.443Z,95892.02
2019-04-26T18:14:32.113Z,95895.73
2019-04-26T18:17:41.783Z,95893.20
2019-04-26T18:20:48.191Z,95900.97
2019-04-26T18:23:35.486Z,95897.14
2019-04-26T18:26:24.446Z,95902.06
2019-04-26T18:29:13.121Z,95905.95
2019-04-26T18:32:03.659Z,95905.93
2019-04-26T18:34:50.150Z,95910.62
2019-04-26T18:37:39.484Z,95905.45
2019-04-26T18:40:27.014Z,95904.80
2019-04-26T18:43:18.895Z,95917.75
2019-04-26T18:46:09.013Z,95916.55
2019-04-26T18:48:57.092Z,95922.56
2019-04-26T18:51:48.445Z,95927.10
2019-04-26T18:54:57.144Z,95925.02
2019-04-26T18:57:47.294Z,95930.43
2019-04-26T19:00:37.306Z,95936.72
2019-04-26T19:03:29.986Z,95936.58
2019-04-26T19:06:26.818Z,95944.25
2019-04-26T19:09:05.909Z,95940.77
2019-04-26T19:11:56.005Z,95947.98
2019-04-26T19:15:04.454Z,95947.98
2019-04-26T19:17:56.384Z,95951.67
2019-04-26T19:20:49.548Z,95946.52
2019-04-26T19:23:37.358Z,95955.78
2019-04-26T19:26:33.032Z,95955.86
2019-04-26T19:29:18.076Z,95955.36
2019-04-26T19:32:04.624Z,95955.21
2019-04-26T19:34:52.562Z,95952.52
2019-04-26T19:37:39.876Z,95958.55
2019-04-26T19:40:27.675Z,95970.61
2019-04-26T19:43:27.733Z,95972.98
2019-04-26T19:46:25.762Z,95990.02
2019-04-26T19:49:41.580Z,95991.34
2019-04-26T19:52:39.580Z,95990.64
2019-04-26T19:55:47.378Z,95997.67
2019-04-26T19:58:36.007Z,95997.83
2019-04-26T20:01:24.993Z,96002.47
2019-04-26T20:04:13.585Z,96001.43
2019-04-26T20:07:01.486Z,96003.06
2019-04-26T20:09:48.769Z,96005.72
2019-04-26T20:12:38.119Z,96001.42
2019-04-26T20:15:28.688Z,96005.38
2019-04-26T20:18:17.464Z,95996.78
2019-04-26T20:21:06.518Z,95996.34
2019-04-26T20:23:54.536Z,95998.67
2019-04-26T20:26:44.714Z,95994.17
2019-04-26T20:29:32.303Z,96002.17
2019-04-26T20:32:42.018Z,96005.28
2019-04-26T20:35:31.865Z,96007.41
2019-04-26T20:38:19.741Z,96015.25
2019-04-26T20:41:07.247Z,96021.75
2019-04-26T20:44:04.905Z,96010.27
2019-04-26T20:46:44.333Z,96018.30
2019-04-26T20:49:32.333Z,96018.58
2019-04-26T20:52:24.696Z,96015.05
2019-04-26T20:55:09.853Z,96007.61
2019-04-26T20:57:59.877Z,96015.66
2019-04-26T21:00:54.195Z,96010.30
2019-04-26T21:03:41.989Z,96009.71
2019-04-26T21:06:29.283Z,96015.55
2019-04-26T21:09:16.174Z,96014.77
2019-04-26T21:12:07.384Z,96012.06
2019-04-26T21:14:53.606Z,96011.56
2019-04-26T21:17:41.632Z,96013.75
2019-04-26T21:20:34.522Z,96009.15
2019-04-26T21:23:18.672Z,96016.45
2019-04-26T21:26:28.457Z,96027.62
2019-04-26T21:29:30.597Z,96012.86
2019-04-26T21:32:24.562Z,96016.90
2019-04-26T21:35:14.463Z,96014.20
2019-04-26T21:38:06.240Z,96013.70
2019-04-26T21:41:04.361Z,96023.24
2019-04-26T21:43:46.797Z,96022.15
2019-04-26T21:46:34.538Z,96028.33
2019-04-26T21:49:24.327Z,96027.95
2019-04-26T21:52:13.665Z,96035.81
2019-04-26T21:55:01.454Z,96033.01
2019-04-26T21:57:48.601Z,96028.66
2019-04-26T22:00:55.256Z,96034.47
2019-04-26T22:03:47.521Z,96034.34
2019-04-26T22:06:33.475Z,96028.83
2019-04-26T22:09:28.489Z,96029.92
2019-04-26T22:12:17.118Z,96034.84
2019-04-26T22:15:37.601Z,96030.98
2019-04-26T22:18:29.957Z,96033.98
2019-04-26T22:21:28.873Z,96034.45
2019-04-26T22:24:18.884Z,96031.03
2019-04-26T22:27:06.796Z,96027.71
2019-04-26T22:29:55.083Z,96024.34
2019-04-26T22:32:42.724Z,96028.52
2019-04-26T22:35:30.675Z,96026.98
2019-04-26T22:38:23.748Z,96033.11
2019-04-26T22:41:07.023Z,96034.31
2019-04-26T22:44:08.778Z,96037.52
2019-04-26T22:47:05.873Z,96035.92
2019-04-26T22:49:53.349Z,96045.81
2019-04-26T22:52:46.490Z,96051.85
2019-04-26T22:55:30.321Z,96038.18
2019-04-26T22:58:20.494Z,96049.66
2019-04-26T23:01:07.739Z,96049.95
2019-04-26T23:03:55.801Z,96053.06
2019-04-26T23:06:46.865Z,96052.41
2019-04-26T23:09:33.416Z,96056.09
2019-04-26T23:12:39.778Z,96058.39
2019-04-26T23:15:44.475Z,96053.65
2019-04-26T23:18:50.200Z,96056.94
2019-04-26T23:21:44.277Z,96063.89
2019-04-26T23:24:29.486Z,96065.12
2019-04-26T23:27:20.397Z,96066.58
2019-04-26T23:30:06.844Z,96071.61
2019-04-26T23:32:54.876Z,96070.06
2019-04-26T23:35:45.696Z,96076.31
2019-04-26T23:38:34.525Z,96072.80
2019-04-26T23:41:21.070Z,96074.72
2019-04-26T23:44:08.360Z,96070.31
2019-04-26T23:47:01.160Z,96068.66
2019-04-26T23:49:45.096Z,96079.49
2019-04-26T23:52:33.278Z,96078.56
2019-04-26T23:55:21.007Z,96076.44
2019-04-26T23:58:10.782Z,96083.63
